createdAt,value
2022-10-06T00:01:32.150Z,63.45
2022-10-06T00:04:00.781Z,63.49
2022-10-06T00:06:29.957Z,63.48
2022-10-06T00:08:58.681Z,63.54
2022-10-06T00:11:27.074Z,63.43
2022-10-06T00:13:55.064Z,63.52
2022-10-06T00:16:24.700Z,63.51
2022-10-06T00:18:53.672Z,63.62
2022-10-06T00:21:21.363Z,63.56
2022-10-06T00:23:50.138Z,63.60
2022-10-06T00:26:18.070Z,63.54
2022-10-06T00:28:48.978Z,63.63
2022-10-06T00:31:20.833Z,63.54
2022-10-06T00:33:50.516Z,63.49
2022-10-06T00:36:21.213Z,63.44
2022-10-06T00:38:49.510Z,63.54
2022-10-06T00:41:19.590Z,63.56
2022-10-06T00:43:57.926Z,63.35
2022-10-06T00:46:46.294Z,63.47
2022-10-06T00:49:24.562Z,63.57
2022-10-06T00:52:03.060Z,63.58
2022-10-06T00:54:33.591Z,63.60
2022-10-06T00:57:04.432Z,63.57
2022-10-06T00:59:33.583Z,63.55
2022-10-06T01:02:04.622Z,63.50
2022-10-06T01:04:38.490Z,63.59
2022-10-06T01:07:08.679Z,63.56
2022-10-06T01:09:38.107Z,63.46
2022-10-06T01:12:08.816Z,63.52
2022-10-06T01:14:39.293Z,63.57
2022-10-06T01:17:12.820Z,63.61
2022-10-06T01:20:15.036Z,63.64
2022-10-06T01:22:47.683Z,63.62
2022-10-06T01:25:18.502Z,63.71
2022-10-06T01:27:54.886Z,63.68
2022-10-06T01:30:52.909Z,63.70
2022-10-06T01:33:22.621Z,63.64
2022-10-06T01:35:53.126Z,63.63
2022-10-06T01:38:22.299Z,63.69
2022-10-06T01:40:54.095Z,63.71
2022-10-06T01:43:22.144Z,63.68
2022-10-06T01:45:56.645Z,63.67
2022-10-06T01:48:24.389Z,63.70
2022-10-06T01:50:54.789Z,63.85
2022-10-06T01:53:23.501Z,63.79
2022-10-06T01:55:51.397Z,63.77
2022-10-06T01:58:19.101Z,63.83
2022-10-06T02:00:46.911Z,63.77
2022-10-06T02:03:14.921Z,63.75
2022-10-06T02:05:43.730Z,63.81
2022-10-06T02:08:11.670Z,63.89
2022-10-06T02:10:40.791Z,63.86
2022-10-06T02:13:10.827Z,63.86
2022-10-06T02:15:39.581Z,63.78
2022-10-06T02:18:09.902Z,63.85
2022-10-06T02:20:37.598Z,63.88
2022-10-06T02:23:06.613Z,63.87
2022-10-06T02:25:34.485Z,63.82
2022-10-06T02:28:02.446Z,63.90
2022-10-06T02:30:30.427Z,63.86
2022-10-06T02:32:59.435Z,63.86
2022-10-06T02:35:27.134Z,64.04
2022-10-06T02:37:54.825Z,63.97
2022-10-06T02:40:24.293Z,63.91
2022-10-06T02:42:53.992Z,63.91
2022-10-06T02:45:22.738Z,64.00
2022-10-06T02:47:50.662Z,63.91
2022-10-06T02:50:18.556Z,63.96
2022-10-06T02:52:47.724Z,64.02
2022-10-06T02:55:15.501Z,63.97
2022-10-06T02:57:43.510Z,63.95
2022-10-06T03:00:13.053Z,64.09
2022-10-06T03:02:40.795Z,64.13
2022-10-06T03:05:09.512Z,64.15
2022-10-06T03:07:38.720Z,64.08
2022-10-06T03:10:08.890Z,64.17
2022-10-06T03:12:36.737Z,64.15
2022-10-06T03:15:07.384Z,64.16
2022-10-06T03:17:35.074Z,64.11
2022-10-06T03:20:02.758Z,64.17
2022-10-06T03:22:31.234Z,64.08
2022-10-06T03:25:00.337Z,64.19
2022-10-06T03:27:28.089Z,64.21
2022-10-06T03:29:56.004Z,64.30
2022-10-06T03:32:25.116Z,64.26
2022-10-06T03:34:54.524Z,64.17
2022-10-06T03:37:22.951Z,64.33
2022-10-06T03:39:52.946Z,64.30
2022-10-06T03:42:20.739Z,64.29
2022-10-06T03:44:48.642Z,64.39
2022-10-06T03:47:17.645Z,64.35
2022-10-06T03:49:48.929Z,64.44
2022-10-06T03:52:16.866Z,64.39
2022-10-06T03:54:46.691Z,64.46
2022-10-06T03:57:16.291Z,64.49
2022-10-06T03:59:46.150Z,64.61
2022-10-06T04:02:13.886Z,64.62
2022-10-06T04:04:42.818Z,64.59
2022-10-06T04:07:11.789Z,64.66
2022-10-06T04:09:40.715Z,64.64
2022-10-06T04:12:08.424Z,64.59
2022-10-06T04:14:36.140Z,64.74
2022-10-06T04:17:04.059Z,64.72
2022-10-06T04:19:33.005Z,64.68
2022-10-06T04:22:00.961Z,64.82
2022-10-06T04:24:30.112Z,64.71
2022-10-06T04:27:18.019Z,64.74
2022-10-06T04:29:47.062Z,64.84
2022-10-06T04:32:17.154Z,64.87
2022-10-06T04:34:44.892Z,64.79
2022-10-06T04:37:12.540Z,64.81
2022-10-06T04:39:42.170Z,64.83
2022-10-06T04:42:10.596Z,64.91
2022-10-06T04:44:38.537Z,64.88
2022-10-06T04:47:07.477Z,64.82
2022-10-06T04:49:35.660Z,64.87
2022-10-06T04:52:04.680Z,64.84
2022-10-06T04:54:34.046Z,64.91
2022-10-06T04:57:02.928Z,64.92
2022-10-06T04:59:51.879Z,64.99
2022-10-06T05:02:21.639Z,65.06
2022-10-06T05:04:49.485Z,65.01
2022-10-06T05:07:17.531Z,65.07
2022-10-06T05:09:45.606Z,64.98
2022-10-06T05:12:13.774Z,64.91
2022-10-06T05:14:41.668Z,65.11
2022-10-06T05:17:09.425Z,65.30
2022-10-06T05:19:38.521Z,65.24
2022-10-06T05:22:06.777Z,65.13
2022-10-06T05:24:35.293Z,65.27
2022-10-06T05:27:04.038Z,65.28
2022-10-06T05:29:32.092Z,65.15
2022-10-06T05:31:59.849Z,65.26
2022-10-06T05:34:27.634Z,65.23
2022-10-06T05:36:55.321Z,65.18
2022-10-06T05:39:23.246Z,65.18
2022-10-06T05:41:53.459Z,65.28
2022-10-06T05:44:22.620Z,65.23
2022-10-06T05:46:52.669Z,65.26
2022-10-06T05:49:25.246Z,65.41
2022-10-06T05:51:54.548Z,65.45
2022-10-06T05:54:22.533Z,65.45
2022-10-06T05:56:52.371Z,65.53
2022-10-06T05:59:20.490Z,65.53
2022-10-06T06:01:48.683Z,65.43
2022-10-06T06:04:18.330Z,65.55
2022-10-06T06:06:50.015Z,65.45
2022-10-06T06:09:21.377Z,65.66
2022-10-06T06:11:54.693Z,65.48
2022-10-06T06:14:42.814Z,65.52
2022-10-06T06:17:12.824Z,65.64
2022-10-06T06:19:41.831Z,65.60
2022-10-06T06:22:10.864Z,65.64
2022-10-06T06:24:38.591Z,65.63
2022-10-06T06:27:06.516Z,65.66
2022-10-06T06:29:35.904Z,65.64
2022-10-06T06:32:04.839Z,65.67
2022-10-06T06:34:32.740Z,65.75
2022-10-06T06:37:06.912Z,65.74
2022-10-06T06:39:37.307Z,65.79
2022-10-06T06:42:08.888Z,65.71
2022-10-06T06:44:37.464Z,65.72
2022-10-06T06:47:05.156Z,65.74
2022-10-06T06:49:32.846Z,65.78
2022-10-06T06:52:04.325Z,65.74
2022-10-06T06:54:32.777Z,65.78
2022-10-06T06:57:01.612Z,65.74
2022-10-06T06:59:35.322Z,65.68
2022-10-06T07:02:04.465Z,65.77
2022-10-06T07:04:33.412Z,65.83
2022-10-06T07:07:02.596Z,65.80
2022-10-06T07:09:30.486Z,65.84
2022-10-06T07:11:58.381Z,65.85
2022-10-06T07:14:26.095Z,65.79
2022-10-06T07:17:13.868Z,65.92
2022-10-06T07:20:01.651Z,65.98
2022-10-06T07:22:49.038Z,65.94
2022-10-06T07:25:28.984Z,65.91
2022-10-06T07:27:56.788Z,66.00
2022-10-06T07:30:29.057Z,65.92
2022-10-06T07:32:57.010Z,65.91
2022-10-06T07:35:26.022Z,65.82
2022-10-06T07:37:54.200Z,65.88
2022-10-06T07:40:23.900Z,65.90
2022-10-06T07:42:54.133Z,65.97
2022-10-06T07:45:42.155Z,65.89
2022-10-06T07:48:16.291Z,65.92
2022-10-06T07:50:49.165Z,65.91
2022-10-06T07:53:19.140Z,65.93
2022-10-06T07:55:50.741Z,65.87
2022-10-06T07:58:24.036Z,65.91
2022-10-06T08:00:53.734Z,65.85
2022-10-06T08:03:23.213Z,65.87
2022-10-06T08:05:58.660Z,65.91
2022-10-06T08:08:31.285Z,65.87
2022-10-06T08:11:01.907Z,65.89
2022-10-06T08:13:34.871Z,65.82
2022-10-06T08:16:06.906Z,65.85
2022-10-06T08:18:45.934Z,65.90
2022-10-06T08:21:29.884Z,65.71
2022-10-06T08:24:00.941Z,65.85
2022-10-06T08:26:31.261Z,65.78
2022-10-06T08:29:03.971Z,65.33
2022-10-06T08:31:33.400Z,64.18
2022-10-06T08:34:02.867Z,64.09
2022-10-06T08:36:32.765Z,64.28
2022-10-06T08:39:01.874Z,64.37
2022-10-06T08:41:32.626Z,64.44
2022-10-06T08:44:20.606Z,64.64
2022-10-06T08:47:14.943Z,64.70
2022-10-06T08:49:47.254Z,64.78
2022-10-06T08:52:52.840Z,64.87
2022-10-06T08:55:55.524Z,64.60
2022-10-06T08:58:23.453Z,64.42
2022-10-06T09:00:58.113Z,64.78
2022-10-06T09:03:30.131Z,64.33
2022-10-06T09:06:13.531Z,64.45
2022-10-06T09:08:53.965Z,63.97
2022-10-06T09:11:44.050Z,63.88
2022-10-06T09:14:38.575Z,63.87
2022-10-06T09:17:14.340Z,64.07
2022-10-06T09:19:59.151Z,63.88
2022-10-06T09:22:32.996Z,63.61
2022-10-06T09:25:20.445Z,63.33
2022-10-06T09:28:04.292Z,63.16
2022-10-06T09:30:32.950Z,63.00
2022-10-06T09:33:05.679Z,62.88
2022-10-06T09:35:33.764Z,62.64
2022-10-06T09:38:08.958Z,62.43
2022-10-06T09:40:54.621Z,62.23
2022-10-06T09:43:29.401Z,61.97
2022-10-06T09:46:29.145Z,61.86
2022-10-06T09:49:18.529Z,61.51
2022-10-06T09:52:19.442Z,61.31
2022-10-06T09:55:23.953Z,61.10
2022-10-06T09:57:56.238Z,60.88
2022-10-06T10:00:38.615Z,60.60
2022-10-06T10:03:12.288Z,60.50
2022-10-06T10:05:48.040Z,60.41
2022-10-06T10:08:24.170Z,60.39
2022-10-06T10:11:32.083Z,60.21
2022-10-06T10:14:00.875Z,60.09
2022-10-06T10:16:35.664Z,59.99
2022-10-06T10:19:06.419Z,59.88
2022-10-06T10:21:37.138Z,59.80
2022-10-06T10:24:15.636Z,59.59
2022-10-06T10:27:07.372Z,59.51
2022-10-06T10:29:45.669Z,59.25
2022-10-06T10:32:18.404Z,59.33
2022-10-06T10:35:04.304Z,59.44
2022-10-06T10:37:45.489Z,59.30
2022-10-06T10:40:29.540Z,59.17
2022-10-06T10:43:13.545Z,59.18
2022-10-06T10:45:50.172Z,59.17
2022-10-06T10:49:02.244Z,59.09
2022-10-06T10:51:37.426Z,58.77
2022-10-06T10:54:20.924Z,58.77
2022-10-06T10:56:52.734Z,58.85
2022-10-06T10:59:24.552Z,58.60
2022-10-06T11:02:02.862Z,58.53
2022-10-06T11:04:32.191Z,58.49
2022-10-06T11:07:30.502Z,58.30
2022-10-06T11:10:18.621Z,58.25
2022-10-06T11:13:06.317Z,58.51
2022-10-06T11:15:52.897Z,58.32
2022-10-06T11:18:42.028Z,58.23
2022-10-06T11:21:46.431Z,57.98
2022-10-06T11:24:43.159Z,58.00
2022-10-06T11:27:23.443Z,57.91
2022-10-06T11:30:26.449Z,58.06
2022-10-06T11:33:30.415Z,57.86
2022-10-06T11:36:02.504Z,57.97
2022-10-06T11:38:42.501Z,57.88
2022-10-06T11:41:21.250Z,57.91
2022-10-06T11:44:00.719Z,57.89
2022-10-06T11:46:52.543Z,57.91
2022-10-06T11:49:30.422Z,58.02
2022-10-06T11:52:08.231Z,57.84
2022-10-06T11:54:40.186Z,58.02
2022-10-06T11:57:30.273Z,57.96
2022-10-06T12:00:04.846Z,57.75
2022-10-06T12:02:33.614Z,57.72
2022-10-06T12:08:09.214Z,57.50
2022-10-06T12:10:50.015Z,57.74
2022-10-06T12:14:26.550Z,57.77
2022-10-06T12:19:50.948Z,57.37
2022-10-06T12:22:31.577Z,57.68
2022-10-06T12:25:32.971Z,57.47
2022-10-06T12:28:20.664Z,57.26
2022-10-06T12:31:17.978Z,57.46
2022-10-06T12:33:48.956Z,57.49
2022-10-06T12:36:30.265Z,57.49
2022-10-06T12:39:07.200Z,57.61
2022-10-06T12:42:07.632Z,57.31
2022-10-06T12:44:43.528Z,57.42
2022-10-06T12:47:31.167Z,57.65
2022-10-06T12:50:27.726Z,57.40
2022-10-06T12:53:09.806Z,57.52
2022-10-06T12:55:53.493Z,57.40
2022-10-06T12:58:32.497Z,57.57
2022-10-06T13:01:12.644Z,57.50
2022-10-06T13:03:48.348Z,57.59
2022-10-06T13:06:23.442Z,57.34
2022-10-06T13:09:13.919Z,57.33
2022-10-06T13:11:41.973Z,57.21
2022-10-06T13:14:14.636Z,57.43
2022-10-06T13:16:48.203Z,57.36
2022-10-06T13:19:25.901Z,57.45
2022-10-06T13:21:55.689Z,57.53
2022-10-06T13:24:28.340Z,57.59
2022-10-06T13:26:57.156Z,57.53
2022-10-06T13:29:28.588Z,57.45
2022-10-06T13:31:56.969Z,57.60
2022-10-06T13:34:44.586Z,57.40
2022-10-06T13:37:16.776Z,57.57
2022-10-06T13:39:45.865Z,57.50
2022-10-06T13:42:21.501Z,57.65
2022-10-06T13:45:01.864Z,57.42
2022-10-06T13:47:30.920Z,57.57
2022-10-06T13:50:07.798Z,57.55
2022-10-06T13:52:44.400Z,57.74
2022-10-06T13:55:23.178Z,57.69
2022-10-06T13:58:03.453Z,57.55
2022-10-06T14:01:01.349Z,57.52
2022-10-06T14:06:19.039Z,57.61
2022-10-06T14:08:57.382Z,57.52
2022-10-06T14:11:29.280Z,57.45
2022-10-06T14:14:08.488Z,57.65
2022-10-06T14:16:36.180Z,57.38
2022-10-06T14:19:05.972Z,57.50
2022-10-06T14:21:41.962Z,57.47
2022-10-06T14:24:15.889Z,57.61
2022-10-06T14:26:46.554Z,57.41
2022-10-06T14:29:14.560Z,57.48
2022-10-06T14:31:44.797Z,57.42
2022-10-06T14:34:18.065Z,57.52
2022-10-06T14:36:51.366Z,57.40
2022-10-06T14:39:20.052Z,57.39
2022-10-06T14:41:47.858Z,57.48
2022-10-06T14:44:16.928Z,57.52
2022-10-06T14:46:48.937Z,57.47
2022-10-06T14:49:18.282Z,57.34
2022-10-06T14:51:47.478Z,57.61
2022-10-06T14:54:16.076Z,57.55
2022-10-06T14:56:43.808Z,57.67
2022-10-06T14:59:18.088Z,57.64
2022-10-06T15:01:50.109Z,57.62
2022-10-06T15:04:25.927Z,57.68
2022-10-06T15:07:14.598Z,57.80
2022-10-06T15:09:43.384Z,57.76
2022-10-06T15:12:12.162Z,57.67
2022-10-06T15:14:40.908Z,57.78
2022-10-06T15:17:11.263Z,57.76
2022-10-06T15:19:41.379Z,57.70
2022-10-06T15:22:11.296Z,57.67
2022-10-06T15:24:39.222Z,57.65
2022-10-06T15:27:28.847Z,57.79
2022-10-06T15:29:58.708Z,57.88
2022-10-06T15:32:27.535Z,57.89
2022-10-06T15:34:56.451Z,57.96
2022-10-06T15:37:24.131Z,57.90
2022-10-06T15:39:52.967Z,57.97
2022-10-06T15:42:25.351Z,57.91
2022-10-06T15:44:54.359Z,57.94
2022-10-06T15:47:25.396Z,57.97
2022-10-06T15:49:53.328Z,57.98
2022-10-06T15:52:23.893Z,57.99
2022-10-06T15:54:53.081Z,58.02
2022-10-06T15:57:21.559Z,57.96
2022-10-06T15:59:51.898Z,58.13
2022-10-06T16:02:22.527Z,58.07
2022-10-06T16:05:15.157Z,58.12
2022-10-06T16:07:44.184Z,58.25
2022-10-06T16:10:13.456Z,58.32
2022-10-06T16:12:41.422Z,58.27
2022-10-06T16:15:11.674Z,58.34
2022-10-06T16:17:39.741Z,58.41
2022-10-06T16:20:09.628Z,58.40
2022-10-06T16:22:37.857Z,58.47
2022-10-06T16:25:08.668Z,58.56
2022-10-06T16:27:36.573Z,58.50
2022-10-06T16:30:06.246Z,58.52
2022-10-06T16:32:34.215Z,58.52
2022-10-06T16:35:03.229Z,58.68
2022-10-06T16:37:33.537Z,58.69
2022-10-06T16:40:01.231Z,58.73
2022-10-06T16:42:29.056Z,58.83
2022-10-06T16:44:56.796Z,58.84
2022-10-06T16:47:24.511Z,59.02
2022-10-06T16:49:52.293Z,58.95
2022-10-06T16:52:20.040Z,59.02
2022-10-06T16:54:49.083Z,59.16
2022-10-06T16:57:16.931Z,59.27
2022-10-06T16:59:47.044Z,59.33
2022-10-06T17:02:16.090Z,59.43
2022-10-06T17:04:44.093Z,59.32
2022-10-06T17:07:13.144Z,59.42
2022-10-06T17:09:51.109Z,59.47
2022-10-06T17:12:29.846Z,59.69
2022-10-06T17:14:58.511Z,59.50
2022-10-06T17:17:26.264Z,59.56
2022-10-06T17:19:54.225Z,59.64
2022-10-06T17:22:23.113Z,59.83
2022-10-06T17:24:51.954Z,59.73
2022-10-06T17:27:21.642Z,59.65
2022-10-06T17:29:49.652Z,59.86
2022-10-06T17:32:18.581Z,59.88
2022-10-06T17:34:46.277Z,59.92
2022-10-06T17:37:16.390Z,60.03
2022-10-06T17:39:47.109Z,60.22
2022-10-06T17:42:17.450Z,60.01
2022-10-06T17:44:46.194Z,60.11
2022-10-06T17:47:13.935Z,60.18
2022-10-06T17:49:41.617Z,60.17
2022-10-06T17:52:09.723Z,60.28
2022-10-06T17:54:37.496Z,60.22
2022-10-06T17:57:08.837Z,60.43
2022-10-06T17:59:36.520Z,60.44
2022-10-06T18:02:08.491Z,60.64
2022-10-06T18:04:39.393Z,60.65
2022-10-06T18:07:10.492Z,60.63
2022-10-06T18:10:01.653Z,60.79
2022-10-06T18:12:36.331Z,60.82
2022-10-06T18:15:06.008Z,60.94
2022-10-06T18:17:35.243Z,60.98
2022-10-06T18:20:09.194Z,61.11
2022-10-06T18:22:36.876Z,61.07
2022-10-06T18:25:06.531Z,61.09
2022-10-06T18:27:34.423Z,61.22
2022-10-06T18:30:05.386Z,61.51
2022-10-06T18:38:12.646Z,61.61
2022-10-06T18:40:40.581Z,61.53
2022-10-06T18:43:09.128Z,61.69
2022-10-06T18:45:57.184Z,61.78
2022-10-06T18:48:58.793Z,61.75
2022-10-06T18:51:33.649Z,61.85
2022-10-06T18:54:14.113Z,61.73
2022-10-06T18:56:51.313Z,61.94
2022-10-06T18:59:23.438Z,62.03
2022-10-06T19:01:51.305Z,61.93
2022-10-06T19:04:23.242Z,62.16
2022-10-06T19:06:54.347Z,62.32
2022-10-06T19:09:28.357Z,62.24
2022-10-06T19:11:58.043Z,62.33
2022-10-06T19:14:34.737Z,62.45
2022-10-06T19:17:14.375Z,62.41
2022-10-06T19:19:45.634Z,62.57
2022-10-06T19:22:16.265Z,62.45
2022-10-06T19:24:49.446Z,62.60
2022-10-06T19:27:24.466Z,62.55
2022-10-06T19:29:55.828Z,62.55
2022-10-06T19:32:32.907Z,62.72
2022-10-06T19:35:06.347Z,62.81
2022-10-06T19:37:38.352Z,62.84
2022-10-06T19:40:09.419Z,62.90
2022-10-06T19:42:50.705Z,63.04
2022-10-06T19:45:20.510Z,63.08
2022-10-06T19:47:51.467Z,63.12
2022-10-06T19:50:20.432Z,63.09
2022-10-06T19:52:48.129Z,63.22
2022-10-06T19:55:15.854Z,63.21
2022-10-06T19:57:43.989Z,63.44
2022-10-06T20:00:12.793Z,63.51
2022-10-06T20:02:46.462Z,63.34
2022-10-06T20:05:16.329Z,63.37
2022-10-06T20:07:47.396Z,63.60
2022-10-06T20:10:16.843Z,63.52
2022-10-06T20:12:46.288Z,63.54
2022-10-06T20:15:15.479Z,63.60
2022-10-06T20:17:45.700Z,63.84
2022-10-06T20:20:15.800Z,63.80
2022-10-06T20:22:43.787Z,63.80
2022-10-06T20:25:12.990Z,64.01
2022-10-06T20:27:40.903Z,63.86
2022-10-06T20:30:11.994Z,64.07
2022-10-06T20:32:41.248Z,64.04
2022-10-06T20:35:09.871Z,64.20
2022-10-06T20:37:42.217Z,64.25
2022-10-06T20:40:29.497Z,64.20
2022-10-06T20:43:00.689Z,64.29
2022-10-06T20:45:30.129Z,64.41
2022-10-06T20:48:01.069Z,64.41
2022-10-06T20:50:31.193Z,64.34
2022-10-06T20:52:59.508Z,64.28
2022-10-06T20:55:28.572Z,64.42
2022-10-06T20:57:57.905Z,64.53
2022-10-06T21:00:25.884Z,64.51
2022-10-06T21:02:55.228Z,64.58
2022-10-06T21:05:23.587Z,64.69
2022-10-06T21:07:51.830Z,64.79
2022-10-06T21:10:19.837Z,64.73
2022-10-06T21:12:48.815Z,64.80
2022-10-06T21:15:17.429Z,64.88
2022-10-06T21:17:49.237Z,64.86
2022-10-06T21:20:18.059Z,64.94
2022-10-06T21:22:45.994Z,64.98
2022-10-06T21:25:13.708Z,64.95
2022-10-06T21:27:41.907Z,65.09
2022-10-06T21:30:13.192Z,65.09
2022-10-06T21:32:43.908Z,65.13
2022-10-06T21:35:11.857Z,65.22
2022-10-06T21:37:42.583Z,65.30
2022-10-06T21:40:11.573Z,65.20
2022-10-06T21:42:41.871Z,65.26
2022-10-06T21:45:11.427Z,65.38
2022-10-06T21:47:39.399Z,65.51
2022-10-06T21:50:09.215Z,65.46
2022-10-06T21:52:37.240Z,65.50
2022-10-06T21:55:06.954Z,65.52
2022-10-06T21:57:34.965Z,65.57
2022-10-06T22:00:02.964Z,65.56
2022-10-06T22:02:32.916Z,65.65
2022-10-06T22:05:02.318Z,65.77
2022-10-06T22:07:30.269Z,65.70
2022-10-06T22:09:58.241Z,65.72
2022-10-06T22:12:27.410Z,65.68
2022-10-06T22:15:00.162Z,65.69
2022-10-06T22:17:28.210Z,65.85
2022-10-06T22:19:56.222Z,65.97
2022-10-06T22:22:26.945Z,65.89
2022-10-06T22:24:56.227Z,65.89
2022-10-06T22:27:26.656Z,65.93
2022-10-06T22:29:54.829Z,66.04
2022-10-06T22:32:24.640Z,66.04
2022-10-06T22:34:53.326Z,66.11
2022-10-06T22:37:21.283Z,66.21
2022-10-06T22:39:49.333Z,66.17
2022-10-06T22:42:17.406Z,66.23
2022-10-06T22:44:45.481Z,66.33
2022-10-06T22:47:15.830Z,66.27
2022-10-06T22:49:43.568Z,66.21
2022-10-06T22:52:11.524Z,66.29
2022-10-06T22:54:39.493Z,66.30
2022-10-06T22:57:07.472Z,66.38
2022-10-06T22:59:35.425Z,66.42
2022-10-06T23:02:03.378Z,66.48
2022-10-06T23:04:34.478Z,66.45
2022-10-06T23:07:02.615Z,66.54
2022-10-06T23:09:30.581Z,66.63
2022-10-06T23:11:58.527Z,66.62
2022-10-06T23:14:26.460Z,66.63
2022-10-06T23:16:55.997Z,66.67
2022-10-06T23:19:25.353Z,66.67
2022-10-06T23:21:53.287Z,66.70
2022-10-06T23:24:21.196Z,66.79
2022-10-06T23:26:49.172Z,66.71
2022-10-06T23:29:17.428Z,66.84
2022-10-06T23:31:45.781Z,66.75
2022-10-06T23:34:14.909Z,66.77
2022-10-06T23:36:44.312Z,66.86
2022-10-06T23:39:12.283Z,66.84
2022-10-06T23:41:43.527Z,66.87
2022-10-06T23:44:11.473Z,66.85
2022-10-06T23:46:39.420Z,66.87
2022-10-06T23:49:07.423Z,66.89
2022-10-06T23:51:35.302Z,66.95
2022-10-06T23:54:03.354Z,66.91
2022-10-06T23:56:31.416Z,66.94
2022-10-06T23:58:59.418Z,66.99
